Terminal Aerodrome Forecast
Issued by NWS Huntsville, AL

Home | Current Version | Previous Version | Text Only | Print | Product List | Glossary On
Versions: 1 2 3 4 5 6 7 8 9 10 11 12 13 14 15 16 17 18 19 20
000
FTUS44 KHUN 042320
TAFMSL
TAF
KMSL 042320Z 0500/0524 33010KT P6SM SCT060
     FM050300 32005KT P6SM SKC
     FM051400 32015G25KT P6SM SCT050
     FM052000 32020G30KT P6SM BKN050=

USA.gov is the U.S. government's official web portal to all federal, state and local government web resources and services.